Time;durP1;ratioP1;P1;durP2;ratioP2;P2;SDS_P1;SDS_P2;PMS_P1;PMS_P2;Temp;Humidity;BMP_temperature;BMP_pressure;BME280_temperature;BME280_humidity;BME280_pressure;Samples;Min_cycle;Max_cycle;Signal;HPM_P1;HPM_P2
2022/01/23 00:04:53;;;;;;;1.30;0.60;;;15.60;52.60;14.60;103003.00;;;;5052694;28;21572;-70
2022/01/23 00:07:42;;;;;;;3.30;0.70;;;15.60;53.30;14.60;103002.00;;;;5045074;28;20036;-70
2022/01/23 00:10:28;;;;;;;;;;;15.60;52.60;14.60;102996.00;;;;5060968;28;20467;-70
2022/01/23 00:19:14;;;;;;;2.15;0.70;;;15.60;52.50;14.60;103002.00;;;;5061496;28;20033;-70
2022/01/23 00:22:00;;;;;;;2.03;1.10;;;15.60;52.50;14.60;102997.00;;;;5061662;28;20068;-70
2022/01/23 00:30:58;;;;;;;1.23;0.65;;;15.60;52.60;14.60;103007.00;;;;5062172;28;20095;-70
2022/01/23 00:33:45;;;;;;;1.20;0.90;;;15.60;52.60;14.60;103010.00;;;;5064372;28;20037;-70
2022/01/23 00:36:31;;;;;;;2.97;0.98;;;15.60;52.60;14.60;103020.00;;;;5041013;28;20037;-70
2022/01/23 00:39:17;;;;;;;1.92;0.70;;;15.60;52.60;14.60;103015.00;;;;5056735;28;20474;-70
2022/01/23 00:42:04;;;;;;;1.58;0.80;;;15.60;52.60;14.70;103009.00;;;;5066575;28;20044;-70
2022/01/23 00:44:57;;;;;;;2.27;0.73;;;15.60;52.60;14.70;102999.00;;;;5066455;28;20052;-71
2022/01/23 00:47:43;;;;;;;1.10;0.80;;;15.60;52.50;14.70;102994.00;;;;5063441;28;20119;-70
2022/01/23 00:50:38;;;;;;;1.83;0.70;;;15.70;52.60;14.70;102990.00;;;;5063804;28;20029;-70
2022/01/23 00:53:24;;;;;;;1.63;0.70;;;15.70;52.60;14.70;102987.00;;;;5068811;28;20036;-70
2022/01/23 00:56:10;;;;;;;2.42;0.90;;;15.60;52.50;14.70;102989.00;;;;5063593;28;20119;-70
2022/01/23 00:58:57;;;;;;;1.55;0.77;;;15.60;52.50;14.70;102977.00;;;;5071296;28;20040;-70
2022/01/23 01:01:43;;;;;;;1.02;0.75;;;15.60;52.50;14.70;102985.00;;;;5051784;28;20041;-70
2022/01/23 01:04:29;;;;;;;3.33;0.80;;;15.60;52.50;14.70;102985.00;;;;5063864;28;20045;-70
2022/01/23 01:07:15;;;;;;;5.15;1.13;;;15.70;52.50;14.70;102995.00;;;;5067425;28;20186;-70
2022/01/23 01:10:07;;;;;;;2.28;0.70;;;15.70;52.50;14.70;103009.00;;;;5063973;28;20470;-70
2022/01/23 01:12:58;;;;;;;1.02;0.73;;;15.60;52.50;14.70;102990.00;;;;5067851;28;20048;-70
2022/01/23 01:31:09;;;;;;;0.82;0.55;;;15.60;52.50;14.60;103002.00;;;;5056016;28;20516;-70
2022/01/23 01:34:03;;;;;;;2.13;0.90;;;15.60;52.50;14.60;102997.00;;;;5052634;28;20064;-70
2022/01/23 01:36:52;;;;;;;1.48;0.93;;;15.60;52.50;14.60;102992.00;;;;5067511;28;20044;-70
2022/01/23 01:39:38;;;;;;;0.68;0.60;;;15.60;52.50;14.60;103006.00;;;;5069149;28;20082;-70
2022/01/23 01:42:24;;;;;;;1.52;0.65;;;15.60;52.50;14.60;102995.00;;;;5065782;28;20040;-70
2022/01/23 01:45:10;;;;;;;1.02;0.60;;;15.60;52.50;14.60;102995.00;;;;5065516;28;20040;-70
2022/01/23 01:47:59;;;;;;;2.20;0.90;;;15.60;52.50;14.60;102993.00;;;;5052415;28;20070;-70
2022/01/23 01:50:47;;;;;;;1.33;0.80;;;15.60;52.50;14.60;102999.00;;;;5063768;28;20036;-70
2022/01/23 01:53:33;;;;;;;1.65;0.52;;;15.60;52.50;14.60;103000.00;;;;5066774;28;20045;-70
2022/01/23 01:56:19;;;;;;;0.93;0.68;;;15.60;52.60;14.70;103011.00;;;;5067245;28;20037;-70
2022/01/23 02:10:55;;;;;;;1.30;0.77;;;15.60;52.60;14.60;102994.00;;;;5054693;28;20053;-70
2022/01/23 02:13:50;;;;;;;2.03;0.98;;;15.60;52.60;14.60;102999.00;;;;5056211;28;20459;-70
2022/01/23 02:17:12;;;;;;;1.42;0.75;;;15.60;52.60;14.70;102998.00;;;;5052098;28;20123;-70
2022/01/23 02:53:37;;;;;;;2.78;0.88;;;15.60;52.60;14.60;103005.00;;;;5068885;28;20043;-70
2022/01/23 02:56:33;;;;;;;3.97;1.10;;;15.60;52.70;14.60;103004.00;;;;5050340;28;20108;-70
2022/01/23 02:59:28;;;;;;;1.13;0.70;;;15.60;52.60;14.60;103003.00;;;;5058479;28;20124;-70
2022/01/23 03:02:29;;;;;;;1.60;0.95;;;15.60;52.60;14.60;103015.00;;;;5060524;28;20398;-70
2022/01/23 03:05:35;;;;;;;1.98;0.95;;;15.60;52.60;14.60;103015.00;;;;5057414;28;20037;-70
2022/01/23 03:08:31;;;;;;;2.17;0.90;;;15.60;52.60;14.60;103019.00;;;;5063081;28;20075;-70
2022/01/23 03:11:48;;;;;;;1.33;0.80;;;15.60;52.60;14.60;103014.00;;;;5062760;28;20040;-70
2022/01/23 03:29:22;;;;;;;4.20;1.00;;;15.60;52.70;14.60;103033.00;;;;5063267;28;20036;-70
2022/01/23 03:32:20;;;;;;;2.70;1.10;;;15.60;52.60;14.60;103026.00;;;;5062694;28;20032;-70
2022/01/23 03:35:06;;;;;;;3.10;1.20;;;15.60;52.60;14.60;103030.00;;;;5059941;28;20119;-70
2022/01/23 03:37:52;;;;;;;1.48;0.95;;;15.60;52.60;14.60;103033.00;;;;5066113;28;20505;-70
2022/01/23 03:40:39;;;;;;;1.27;1.08;;;15.60;52.60;14.60;103027.00;;;;5058831;28;20051;-70
2022/01/23 03:43:31;;;;;;;3.70;1.10;;;15.60;52.70;14.60;103038.00;;;;5065690;28;20044;-70
2022/01/23 03:46:23;;;;;;;3.17;1.08;;;15.60;52.70;14.60;103035.00;;;;5049913;28;20047;-70
2022/01/23 03:52:14;;;;;;;2.20;1.02;;;15.60;52.70;14.60;103040.00;;;;5061722;28;20170;-70
2022/01/23 03:55:02;;;;;;;1.33;0.80;;;15.60;52.70;14.60;103028.00;;;;5044055;28;20067;-70
2022/01/23 03:57:48;;;;;;;1.00;0.85;;;15.60;52.70;14.60;103029.00;;;;5067081;28;20032;-70
2022/01/23 04:00:34;;;;;;;1.40;0.90;;;15.60;52.80;14.60;103034.00;;;;5059448;28;20496;-70
2022/01/23 04:03:21;;;;;;;1.00;0.82;;;15.60;52.80;14.70;103033.00;;;;5065785;28;20052;-70
2022/01/23 04:06:07;;;;;;;1.85;1.00;;;15.60;52.80;14.70;103025.00;;;;5062180;28;20049;-70
2022/01/23 04:08:53;;;;;;;2.28;1.10;;;15.60;52.80;14.60;103022.00;;;;5065574;28;20041;-70
2022/01/23 04:11:39;;;;;;;1.65;0.90;;;15.60;52.80;14.70;103022.00;;;;5061830;28;20044;-70
2022/01/23 04:14:27;;;;;;;1.92;0.90;;;15.60;52.80;14.70;103025.00;;;;5064066;28;20478;-70
2022/01/23 04:20:27;;;;;;;1.67;0.95;;;15.60;52.80;14.70;103030.00;;;;5060030;28;20044;-70
2022/01/23 04:35:44;;;;;;;2.03;1.23;;;15.70;52.80;14.70;103037.00;;;;5058957;28;20041;-70
2022/01/23 04:59:47;;;;;;;1.20;0.98;;;15.80;52.60;14.80;103028.00;;;;5064305;28;20040;-70
2022/01/23 05:05:36;;;;;;;3.17;1.55;;;15.80;52.70;14.80;103031.00;;;;5060637;28;20055;-70
2022/01/23 05:08:22;;;;;;;1.75;1.23;;;15.80;52.60;14.80;103034.00;;;;5065275;28;20049;-71
2022/01/23 05:11:11;;;;;;;2.00;1.30;;;15.80;52.60;14.80;103035.00;;;;5061243;28;20112;-70
2022/01/23 05:13:57;;;;;;;1.63;1.27;;;15.80;52.60;14.80;103035.00;;;;5047828;28;20045;-70
2022/01/23 05:16:43;;;;;;;2.60;1.33;;;15.80;52.60;14.80;103035.00;;;;5051040;28;20041;-70
2022/01/23 05:19:29;;;;;;;2.38;1.13;;;15.80;52.60;14.80;103039.00;;;;5058163;28;20033;-70
2022/01/23 05:25:15;;;;;;;1.38;1.25;;;15.80;52.60;14.80;103036.00;;;;5060285;28;20097;-70
2022/01/23 05:28:01;;;;;;;2.42;1.23;;;15.80;52.60;14.80;103040.00;;;;5058217;28;20137;-70
2022/01/23 05:30:48;;;;;;;2.08;1.55;;;15.80;52.60;14.80;103038.00;;;;5064910;28;20078;-70
2022/01/23 05:33:34;;;;;;;3.22;1.20;;;15.80;52.60;14.80;103046.00;;;;5051625;28;20044;-70
2022/01/23 05:36:21;;;;;;;2.08;1.27;;;15.80;52.60;14.80;103040.00;;;;5066532;28;20270;-70
2022/01/23 05:39:07;;;;;;;3.72;1.50;;;15.70;52.50;14.80;103045.00;;;;5063096;28;20041;-70
2022/01/23 05:42:04;;;;;;;2.65;1.35;;;15.80;52.50;14.80;103041.00;;;;5067255;28;20492;-70
2022/01/23 05:44:50;;;;;;;1.83;1.35;;;15.80;52.50;14.80;103049.00;;;;5064744;28;20574;-70
2022/01/23 05:47:36;;;;;;;2.72;1.23;;;15.80;52.50;14.80;103051.00;;;;5063676;28;20502;-70
2022/01/23 05:50:22;;;;;;;1.48;1.25;;;15.80;52.50;14.80;103051.00;;;;5066709;28;20036;-70
2022/01/23 05:53:09;;;;;;;2.53;1.45;;;15.80;52.50;14.80;103050.00;;;;5066520;28;20046;-70
2022/01/23 05:55:55;;;;;;;2.03;1.55;;;15.80;52.50;14.80;103053.00;;;;5064061;28;20040;-70
2022/01/23 05:58:41;;;;;;;2.40;1.38;;;15.80;52.50;14.80;103057.00;;;;5066131;28;20064;-70
2022/01/23 06:01:28;;;;;;;1.90;1.30;;;15.80;52.60;14.80;103063.00;;;;5061757;28;20102;-70
2022/01/23 06:04:14;;;;;;;4.07;1.48;;;15.80;52.50;14.80;103064.00;;;;5061128;28;20071;-70
2022/01/23 06:07:00;;;;;;;2.30;1.48;;;15.80;52.50;14.80;103068.00;;;;5065096;28;20044;-70
2022/01/23 06:09:46;;;;;;;2.80;1.40;;;15.90;52.50;14.80;103062.00;;;;5060093;28;20485;-70
2022/01/23 06:12:32;;;;;;;1.30;1.20;;;15.80;52.50;14.80;103064.00;;;;5067839;28;20694;-70
2022/01/23 06:15:18;;;;;;;2.92;1.50;;;15.80;52.50;14.80;103067.00;;;;5067116;28;20056;-70
2022/01/23 06:18:04;;;;;;;2.78;1.35;;;15.70;52.40;14.80;103070.00;;;;5049900;28;20037;-70
2022/01/23 06:20:50;;;;;;;1.63;1.40;;;15.80;52.50;14.80;103067.00;;;;5061886;28;20040;-70
2022/01/23 06:23:36;;;;;;;1.52;1.40;;;15.80;52.50;14.80;103065.00;;;;5064319;28;20477;-70
2022/01/23 06:26:22;;;;;;;2.88;1.88;;;15.80;52.40;14.80;103058.00;;;;5061627;28;20067;-70
2022/01/23 06:29:09;;;;;;;1.10;1.00;;;15.80;52.40;14.80;103057.00;;;;5047004;28;20071;-70
2022/01/23 06:31:57;;;;;;;1.48;1.20;;;15.80;52.40;14.80;103068.00;;;;5047132;28;20064;-70
2022/01/23 06:34:43;;;;;;;3.08;1.60;;;15.80;52.50;14.80;103065.00;;;;5061249;28;20035;-70
2022/01/23 06:37:29;;;;;;;2.03;1.50;;;15.80;52.40;14.80;103071.00;;;;5066018;28;20135;-70
2022/01/23 06:40:15;;;;;;;2.20;1.70;;;15.80;52.80;14.80;103077.00;;;;5054567;28;20048;-70
2022/01/23 06:43:01;;;;;;;2.33;1.48;;;15.80;52.40;14.80;103080.00;;;;5060617;28;20049;-70
2022/01/23 06:45:47;;;;;;;2.03;1.67;;;15.80;52.40;14.80;103079.00;;;;5050847;28;20072;-70
2022/01/23 06:48:33;;;;;;;2.20;1.80;;;15.80;52.40;14.80;103081.00;;;;5068253;28;20048;-70
2022/01/23 06:51:20;;;;;;;1.90;1.20;;;15.80;52.40;14.80;103085.00;;;;5063070;28;20043;-70
2022/01/23 06:54:06;;;;;;;1.98;1.40;;;15.80;52.50;14.80;103082.00;;;;5057828;28;20096;-70
2022/01/23 06:56:52;;;;;;;2.20;1.40;;;15.80;52.50;14.80;103087.00;;;;5065167;28;20406;-70
2022/01/23 06:59:38;;;;;;;1.50;1.27;;;15.80;52.40;14.80;103086.00;;;;5065082;28;20028;-70
2022/01/23 07:02:24;;;;;;;3.38;1.80;;;15.80;52.40;14.80;103100.00;;;;5061912;28;20045;-70
2022/01/23 07:05:10;;;;;;;3.40;1.60;;;15.80;52.40;14.80;103093.00;;;;5060566;28;20032;-70
2022/01/23 07:07:56;;;;;;;1.88;1.30;;;15.80;52.40;14.80;103099.00;;;;5064138;28;20068;-70
2022/01/23 07:10:42;;;;;;;1.83;1.20;;;15.80;52.40;14.80;103102.00;;;;5066985;28;20397;-70
2022/01/23 07:13:28;;;;;;;1.85;1.40;;;15.80;52.40;14.80;103103.00;;;;5067808;28;20051;-70
2022/01/23 07:16:14;;;;;;;2.28;1.40;;;15.80;52.40;14.80;103106.00;;;;5058299;28;20531;-70
2022/01/23 07:19:00;;;;;;;2.38;1.60;;;15.80;52.40;14.80;103108.00;;;;5044200;28;20542;-70
2022/01/23 07:21:47;;;;;;;2.55;1.63;;;15.80;52.40;14.80;103103.00;;;;5063121;28;20056;-70
2022/01/23 07:24:33;;;;;;;2.90;1.42;;;15.80;52.40;14.80;103105.00;;;;5065985;28;20037;-70
2022/01/23 07:27:21;;;;;;;4.35;1.67;;;15.80;52.40;14.80;103111.00;;;;5059824;28;20049;-70
2022/01/23 07:30:19;;;;;;;2.45;1.48;;;15.80;52.40;14.80;103105.00;;;;5058734;28;20040;-70
2022/01/23 07:33:05;;;;;;;2.60;1.60;;;15.80;52.40;14.80;103106.00;;;;5062783;28;20040;-70
2022/01/23 07:35:51;;;;;;;3.80;1.75;;;15.80;52.40;14.80;103109.00;;;;5047686;28;20033;-70
2022/01/23 07:38:37;;;;;;;2.25;1.92;;;15.80;52.40;14.80;103108.00;;;;5061858;28;20429;-70
2022/01/23 07:41:23;;;;;;;3.25;1.58;;;15.90;52.50;14.80;103106.00;;;;5054885;28;20036;-70
2022/01/23 07:44:09;;;;;;;3.15;1.52;;;15.80;52.40;14.80;103112.00;;;;5062223;28;20093;-70
2022/01/23 07:46:55;;;;;;;2.65;1.50;;;15.80;52.40;14.80;103110.00;;;;5063984;28;20048;-70
2022/01/23 07:49:41;;;;;;;4.78;1.95;;;15.80;52.40;14.80;103111.00;;;;5066338;28;20040;-71
2022/01/23 07:52:30;;;;;;;1.98;1.40;;;15.70;52.40;14.80;103104.00;;;;5059794;28;20037;-70
2022/01/23 07:55:17;;;;;;;2.40;1.60;;;15.80;52.40;14.80;103112.00;;;;5057379;28;20049;-70
2022/01/23 07:58:10;;;;;;;1.98;1.33;;;15.80;52.40;14.80;103112.00;;;;5047921;28;20076;-70
2022/01/23 08:00:56;;;;;;;4.53;1.60;;;15.80;52.50;14.80;103123.00;;;;5063516;28;20703;-70
2022/01/23 08:03:42;;;;;;;2.47;1.55;;;15.80;52.40;14.80;103123.00;;;;5062917;28;20098;-70
2022/01/23 08:06:32;;;;;;;1.33;1.23;;;15.80;52.50;14.80;103129.00;;;;5058155;28;20060;-70
2022/01/23 08:09:18;;;;;;;2.03;1.23;;;15.80;52.40;14.80;103128.00;;;;5055098;28;20045;-70
2022/01/23 08:12:05;;;;;;;3.75;1.88;;;15.80;52.40;14.80;103133.00;;;;5064852;28;20037;-70
2022/01/23 08:14:51;;;;;;;1.60;1.50;;;15.70;52.40;14.80;103134.00;;;;5063094;28;20040;-70
2022/01/23 08:17:38;;;;;;;2.53;1.50;;;15.70;52.40;14.80;103125.00;;;;5058111;28;20048;-70
2022/01/23 08:20:33;;;;;;;1.42;1.25;;;15.80;52.40;14.80;103129.00;;;;5058116;28;20053;-70
2022/01/23 08:23:21;;;;;;;1.73;1.55;;;15.70;52.40;14.80;103131.00;;;;5046378;28;20433;-70
2022/01/23 08:26:07;;;;;;;1.40;1.30;;;15.80;52.40;14.80;103133.00;;;;5063719;28;20044;-70
2022/01/23 08:28:53;;;;;;;3.45;1.60;;;15.80;52.40;14.80;103140.00;;;;5063873;28;20043;-70
2022/01/23 08:31:39;;;;;;;3.03;1.50;;;15.80;52.40;14.80;103144.00;;;;5056692;28;20055;-70
2022/01/23 08:34:25;;;;;;;2.53;1.42;;;15.80;52.40;14.80;103143.00;;;;5060973;28;20501;-70
2022/01/23 08:37:11;;;;;;;3.05;1.40;;;15.80;52.40;14.80;103145.00;;;;5063041;28;20059;-70
2022/01/23 08:39:57;;;;;;;3.50;1.85;;;15.80;52.40;14.80;103154.00;;;;5049060;28;20363;-70
2022/01/23 08:42:43;;;;;;;1.50;1.40;;;15.70;52.40;14.80;103152.00;;;;5066987;28;20040;-70
2022/01/23 08:45:30;;;;;;;2.72;1.60;;;15.70;52.40;14.80;103169.00;;;;5059804;28;20040;-70
2022/01/23 08:48:16;;;;;;;3.33;1.55;;;15.80;52.40;14.80;103171.00;;;;5051873;28;20032;-70
2022/01/23 08:51:02;;;;;;;1.48;1.35;;;15.80;52.40;14.80;103177.00;;;;5058321;28;20448;-70
2022/01/23 08:53:48;;;;;;;2.30;1.60;;;15.80;52.40;14.80;103173.00;;;;5048647;28;20040;-70
2022/01/23 08:56:34;;;;;;;3.28;1.40;;;15.80;52.40;14.80;103178.00;;;;5060778;28;20036;-69
2022/01/23 08:59:20;;;;;;;2.30;1.52;;;15.80;52.40;14.80;103174.00;;;;5058959;28;20044;-69
2022/01/23 09:02:07;;;;;;;5.18;1.63;;;15.80;52.40;14.80;103174.00;;;;5062775;28;20040;-69
2022/01/23 09:04:53;;;;;;;2.25;1.42;;;15.80;52.40;14.80;103171.00;;;;5047063;28;20054;-69
2022/01/23 09:07:39;;;;;;;2.78;1.60;;;15.80;52.40;14.80;103179.00;;;;5068224;28;20055;-69
2022/01/23 09:10:28;;;;;;;2.10;1.33;;;15.80;52.40;14.80;103174.00;;;;5055874;28;20106;-69
2022/01/23 09:13:29;;;;;;;1.77;1.67;;;15.80;52.40;14.80;103172.00;;;;5069714;28;20393;-69
2022/01/23 09:16:15;;;;;;;2.53;1.55;;;15.80;52.40;14.80;103172.00;;;;5066434;28;20063;-69
2022/01/23 09:19:01;;;;;;;1.95;1.33;;;15.80;52.40;14.80;103179.00;;;;5061845;28;20045;-69
2022/01/23 09:21:49;;;;;;;2.47;1.67;;;15.80;52.40;14.80;103175.00;;;;5068553;28;20128;-69
2022/01/23 09:24:35;;;;;;;3.03;1.70;;;15.80;52.40;14.80;103189.00;;;;5040220;28;20048;-69
2022/01/23 09:27:21;;;;;;;3.58;1.33;;;15.80;52.40;14.80;103179.00;;;;5070628;28;20048;-69
2022/01/23 09:30:17;;;;;;;2.60;1.50;;;15.90;52.40;14.80;103183.00;;;;5046980;28;20052;-69
2022/01/23 09:33:03;;;;;;;1.92;1.75;;;15.90;52.50;14.80;103183.00;;;;5067326;28;20032;-69
2022/01/23 09:35:49;;;;;;;2.80;1.75;;;15.90;52.40;14.80;103182.00;;;;5059290;28;20029;-69
2022/01/23 09:38:35;;;;;;;2.33;1.60;;;15.90;52.50;14.80;103182.00;;;;5067284;28;20040;-70
2022/01/23 09:41:24;;;;;;;1.75;1.60;;;15.90;52.50;14.80;103183.00;;;;5069786;28;20105;-74
2022/01/23 09:44:10;;;;;;;2.50;1.95;;;15.80;52.40;14.80;103183.00;;;;5058013;28;20091;-69
2022/01/23 09:46:57;;;;;;;2.42;1.27;;;15.90;52.50;14.80;103184.00;;;;5055857;28;20044;-69
2022/01/23 09:49:43;;;;;;;2.00;1.48;;;15.90;52.50;14.80;103187.00;;;;5056543;28;20048;-69
2022/01/23 09:52:31;;;;;;;1.55;1.45;;;15.90;52.50;14.80;103188.00;;;;5056768;28;20063;-69
2022/01/23 09:55:17;;;;;;;2.20;1.83;;;15.90;52.40;14.80;103181.00;;;;5050461;28;20039;-69
2022/01/23 09:58:03;;;;;;;2.42;1.70;;;15.90;52.40;14.90;103197.00;;;;5052231;28;20083;-69
2022/01/23 10:00:49;;;;;;;3.25;1.70;;;15.90;52.40;14.90;103201.00;;;;5067973;28;20461;-70
2022/01/23 10:03:35;;;;;;;1.60;1.45;;;15.90;52.40;14.90;103201.00;;;;5036801;28;20039;-70
2022/01/23 10:06:21;;;;;;;3.58;1.88;;;15.90;52.40;14.90;103199.00;;;;5062684;28;20051;-70
2022/01/23 10:09:08;;;;;;;2.63;1.67;;;15.90;52.40;14.90;103207.00;;;;5059710;28;20051;-70
2022/01/23 10:11:54;;;;;;;2.95;1.65;;;15.90;52.40;14.90;103206.00;;;;5068325;28;20123;-70
2022/01/23 10:14:40;;;;;;;1.90;1.67;;;16.00;52.40;14.90;103201.00;;;;5061024;28;20029;-70
2022/01/23 10:17:26;;;;;;;3.00;1.98;;;15.90;52.40;14.90;103216.00;;;;5050862;28;20048;-70
2022/01/23 10:20:13;;;;;;;2.25;1.80;;;15.90;52.30;14.90;103209.00;;;;5062505;28;20037;-70
2022/01/23 10:22:59;;;;;;;1.98;1.60;;;15.90;52.30;14.90;103211.00;;;;5061557;28;20500;-70
2022/01/23 10:25:47;;;;;;;2.65;1.52;;;15.90;52.30;14.90;103201.00;;;;5050760;28;20464;-70
2022/01/23 10:28:35;;;;;;;2.08;1.52;;;15.90;52.30;14.90;103197.00;;;;5062593;28;20068;-70
2022/01/23 10:31:22;;;;;;;2.25;1.52;;;16.00;52.30;14.90;103199.00;;;;5065558;28;20127;-70
2022/01/23 10:34:08;;;;;;;2.90;2.05;;;16.00;52.30;14.90;103200.00;;;;5066482;28;20028;-70
2022/01/23 10:36:54;;;;;;;3.72;2.30;;;16.00;52.30;14.90;103195.00;;;;5061621;28;20033;-70
2022/01/23 10:39:47;;;;;;;3.35;1.85;;;15.90;52.20;14.90;103196.00;;;;5058778;28;20501;-70
2022/01/23 10:48:42;;;;;;;3.88;1.60;;;16.00;52.30;14.90;103196.00;;;;5052436;28;20110;-70
2022/01/23 10:51:36;;;;;;;2.50;1.77;;;16.00;52.20;14.90;103185.00;;;;5058562;28;20112;-70
2022/01/23 10:54:24;;;;;;;1.70;1.50;;;16.00;52.30;14.90;103196.00;;;;5063797;28;20040;-70
2022/01/23 10:57:10;;;;;;;2.60;1.80;;;15.90;52.20;14.90;103188.00;;;;5051558;28;20037;-70
2022/01/23 10:59:56;;;;;;;2.58;1.98;;;16.00;52.20;14.90;103192.00;;;;5062369;28;20482;-70
2022/01/23 11:02:42;;;;;;;2.35;1.60;;;16.00;52.10;14.90;103191.00;;;;5065722;28;20047;-71
2022/01/23 11:05:36;;;;;;;2.13;1.63;;;15.90;52.10;14.90;103186.00;;;;5062078;28;20047;-70
2022/01/23 11:08:24;;;;;;;3.40;1.52;;;16.00;52.10;14.90;103193.00;;;;5049938;28;20119;-70
2022/01/23 11:11:10;;;;;;;2.75;1.70;;;15.90;52.10;14.90;103185.00;;;;5054045;28;20440;-70
2022/01/23 11:17:22;;;;;;;1.83;1.67;;;15.90;52.10;14.90;103187.00;;;;5056073;28;20036;-69
2022/01/23 11:20:08;;;;;;;1.90;1.42;;;15.90;52.20;14.90;103187.00;;;;5052793;28;20474;-69
2022/01/23 11:23:22;;;;;;;2.55;1.52;;;15.90;52.10;14.90;103186.00;;;;5063521;28;20111;-70
2022/01/23 11:26:10;;;;;;;2.13;1.35;;;15.90;52.10;14.90;103182.00;;;;5053021;28;20295;-69
2022/01/23 11:28:57;;;;;;;1.65;1.30;;;15.90;52.10;14.90;103184.00;;;;5064909;28;20044;-69
2022/01/23 11:31:43;;;;;;;1.52;1.33;;;15.90;52.10;14.90;103178.00;;;;5051992;28;20078;-69
2022/01/23 11:34:31;;;;;;;1.73;1.20;;;15.90;52.10;14.90;103171.00;;;;5063761;28;20085;-70
2022/01/23 11:37:18;;;;;;;1.63;1.15;;;15.90;52.00;14.90;103176.00;;;;5068298;28;20037;-69
2022/01/23 11:40:11;;;;;;;1.08;0.95;;;15.90;52.00;14.90;103173.00;;;;5063793;28;20045;-69
2022/01/23 11:55:35;;;;;;;1.48;0.90;;;15.90;52.00;14.90;103160.00;;;;5055078;28;20116;-69
2022/01/23 11:58:48;;;;;;;1.10;0.88;;;15.90;52.00;14.90;103158.00;;;;5069925;28;20482;-69
2022/01/23 12:01:34;;;;;;;1.25;0.90;;;15.90;52.00;14.90;103157.00;;;;5032410;28;20051;-69
2022/01/23 12:04:21;;;;;;;1.13;1.02;;;15.90;51.90;14.90;103157.00;;;;5060480;28;20051;-69
2022/01/23 12:07:14;;;;;;;1.10;0.93;;;15.90;51.80;14.90;103154.00;;;;5073365;28;20059;-69
2022/01/23 12:10:21;;;;;;;1.48;0.80;;;15.90;51.80;14.90;103151.00;;;;5063493;28;20040;-69
2022/01/23 12:13:32;;;;;;;1.00;0.75;;;15.90;51.80;14.90;103156.00;;;;5043161;28;20537;-69
2022/01/23 12:16:29;;;;;;;0.80;0.80;;;15.90;51.70;14.80;103142.00;;;;5060689;28;20036;-69
2022/01/23 12:19:23;;;;;;;2.28;0.80;;;15.90;51.80;14.90;103145.00;;;;5046937;28;20040;-69
2022/01/23 12:22:27;;;;;;;1.23;0.80;;;15.90;51.70;14.90;103145.00;;;;5050251;28;20048;-69
2022/01/23 12:25:18;;;;;;;1.17;0.77;;;15.90;51.70;14.90;103141.00;;;;5056812;28;20044;-69
2022/01/23 12:28:28;;;;;;;1.48;0.90;;;15.90;51.80;14.80;103143.00;;;;5052860;28;20405;-69
2022/01/23 12:31:14;;;;;;;0.75;0.57;;;15.90;51.70;14.80;103156.00;;;;5052255;28;20041;-70
2022/01/23 12:34:02;;;;;;;0.90;0.80;;;15.90;51.80;14.90;103154.00;;;;5059208;28;20044;-70
2022/01/23 12:36:54;;;;;;;0.93;0.65;;;15.90;51.70;14.90;103152.00;;;;5055069;28;20047;-70
2022/01/23 12:39:40;;;;;;;1.00;0.90;;;15.90;51.70;14.80;103155.00;;;;5038247;28;20044;-70
2022/01/23 12:42:51;;;;;;;1.15;0.70;;;15.90;51.60;14.90;103153.00;;;;5049191;28;20044;-70
2022/01/23 12:45:54;;;;;;;0.88;0.68;;;15.90;51.80;14.90;103153.00;;;;5059026;28;20497;-68
2022/01/23 12:48:43;;;;;;;1.27;0.75;;;15.90;51.70;14.90;103157.00;;;;5052501;28;20040;-70
2022/01/23 12:51:32;;;;;;;0.63;0.55;;;15.90;51.70;14.90;103154.00;;;;5065199;28;20459;-69
2022/01/23 12:54:25;;;;;;;0.73;0.52;;;15.90;51.60;14.90;103154.00;;;;5042609;28;20390;-68
2022/01/23 12:57:14;;;;;;;1.20;0.68;;;15.90;51.60;14.90;103163.00;;;;5058067;28;20040;-70
2022/01/23 13:00:03;;;;;;;1.40;0.65;;;15.90;51.60;14.90;103156.00;;;;5066859;28;20234;-69
2022/01/23 13:02:51;;;;;;;0.63;0.55;;;15.90;51.60;14.90;103155.00;;;;5046093;28;20044;-69
2022/01/23 13:05:38;;;;;;;0.63;0.63;;;15.90;51.60;14.90;103148.00;;;;5055423;28;20563;-69
2022/01/23 13:08:34;;;;;;;0.88;0.70;;;15.90;51.60;14.90;103144.00;;;;5023228;28;20501;-69
2022/01/23 13:11:50;;;;;;;0.75;0.70;;;15.90;52.30;14.90;103142.00;;;;5064083;28;20487;-69
2022/01/23 13:30:02;;;;;;;0.73;0.60;;;15.90;51.60;14.90;103140.00;;;;5043273;28;20465;-69
2022/01/23 13:32:49;;;;;;;2.15;0.52;;;15.90;51.50;14.90;103146.00;;;;5050975;28;20170;-69
2022/01/23 13:35:40;;;;;;;1.60;0.80;;;15.90;51.50;14.90;103152.00;;;;5058688;28;20041;-69
2022/01/23 13:38:26;;;;;;;0.70;0.65;;;15.90;51.50;14.90;103155.00;;;;5054493;28;20052;-69
2022/01/23 13:41:22;;;;;;;0.73;0.60;;;15.90;51.50;14.90;103143.00;;;;5064690;28;20079;-69
2022/01/23 13:51:15;;;;;;;0.88;0.60;;;16.00;51.60;14.90;103148.00;;;;5056136;28;20394;-69
2022/01/23 14:00:07;;;;;;;1.17;0.70;;;16.00;52.20;14.90;103154.00;;;;5054163;28;20044;-69
2022/01/23 14:02:54;;;;;;;1.40;0.70;;;15.90;51.50;14.90;103151.00;;;;5066267;28;20166;-69
2022/01/23 14:05:40;;;;;;;1.45;0.70;;;16.00;51.50;14.90;103145.00;;;;5034824;28;20045;-69
2022/01/23 14:08:26;;;;;;;1.83;0.73;;;16.00;51.50;14.90;103140.00;;;;5035665;28;20049;-69
2022/01/23 14:11:12;;;;;;;0.52;0.52;;;15.90;51.50;15.00;103154.00;;;;5061949;28;20041;-69
2022/01/23 14:14:22;;;;;;;1.05;0.80;;;16.00;51.50;15.00;103144.00;;;;5056008;28;20477;-69
2022/01/23 14:17:13;;;;;;;0.75;0.52;;;16.00;51.50;15.00;103145.00;;;;5054617;28;20060;-69
2022/01/23 14:20:05;;;;;;;0.70;0.70;;;15.90;51.40;15.00;103145.00;;;;5052959;28;20119;-69
2022/01/23 14:22:53;;;;;;;0.60;0.50;;;16.00;51.40;15.00;103142.00;;;;5060529;28;20028;-69
2022/01/23 14:25:53;;;;;;;1.83;0.73;;;16.00;51.40;15.00;103143.00;;;;5062978;28;20063;-69
2022/01/23 14:28:45;;;;;;;1.17;0.60;;;16.00;51.40;15.00;103140.00;;;;5052874;28;20097;-69
2022/01/23 14:31:38;;;;;;;0.82;0.65;;;16.00;52.10;15.00;103133.00;;;;5045231;28;20120;-69
2022/01/23 14:34:26;;;;;;;1.15;0.63;;;16.00;51.40;15.00;103133.00;;;;5057931;28;20093;-69
2022/01/23 14:37:12;;;;;;;1.00;0.87;;;15.90;51.40;15.00;103141.00;;;;5066900;28;20047;-69
2022/01/23 14:40:20;;;;;;;1.17;0.70;;;16.00;51.40;15.00;103145.00;;;;5048063;28;20098;-69
2022/01/23 14:43:08;;;;;;;0.65;0.60;;;16.00;51.40;15.00;103139.00;;;;5045917;28;20049;-69
2022/01/23 14:45:54;;;;;;;0.95;0.50;;;16.00;51.40;15.00;103139.00;;;;5059677;28;20047;-69
2022/01/23 14:48:47;;;;;;;1.10;0.60;;;16.00;51.40;15.00;103127.00;;;;5056334;28;20055;-69
2022/01/23 14:51:34;;;;;;;1.08;0.55;;;16.00;51.40;15.00;103127.00;;;;5044930;28;20040;-69
2022/01/23 14:54:21;;;;;;;0.85;0.60;;;16.00;51.30;15.00;103126.00;;;;5058179;28;20045;-69
2022/01/23 14:57:12;;;;;;;1.30;0.63;;;16.00;51.40;15.00;103121.00;;;;5068745;28;20087;-69
2022/01/23 14:59:59;;;;;;;0.45;0.45;;;16.00;51.30;15.00;103123.00;;;;5055025;28;20520;-69
2022/01/23 15:02:45;;;;;;;2.85;0.60;;;16.00;51.30;15.00;103132.00;;;;5033136;28;20401;-69
2022/01/23 15:05:36;;;;;;;2.85;0.70;;;16.00;51.30;15.00;103123.00;;;;5059265;28;20045;-69
2022/01/23 15:08:24;;;;;;;0.95;0.70;;;16.00;51.30;15.00;103124.00;;;;5066050;28;20139;-69
2022/01/23 15:11:10;;;;;;;0.90;0.50;;;16.00;51.30;15.00;103134.00;;;;5062224;28;20049;-69
2022/01/23 15:13:56;;;;;;;1.65;0.60;;;16.00;51.30;15.00;103134.00;;;;5062111;28;20045;-69
2022/01/23 15:16:43;;;;;;;0.60;0.60;;;16.00;51.30;15.00;103129.00;;;;5064186;28;20090;-69
2022/01/23 15:19:29;;;;;;;0.60;0.60;;;16.00;51.30;15.00;103139.00;;;;5057828;28;20040;-69
2022/01/23 15:22:15;;;;;;;1.05;0.60;;;16.00;51.30;15.00;103131.00;;;;5070646;28;20032;-69
2022/01/23 15:25:01;;;;;;;0.57;0.47;;;16.10;51.30;15.00;103133.00;;;;5058066;28;20048;-69
2022/01/23 15:27:47;;;;;;;0.70;0.55;;;16.10;51.40;15.00;103135.00;;;;5065771;28;20102;-69
2022/01/23 15:30:33;;;;;;;0.90;0.60;;;16.00;51.30;15.00;103132.00;;;;5059314;28;20059;-69